createdAt,value
2023-05-05T10:54:55.242Z,20.71
2023-05-05T10:57:26.775Z,20.56
2023-05-05T10:59:54.115Z,20.75
2023-05-05T11:02:25.300Z,21.37
2023-05-05T11:05:25.426Z,21.95
2023-05-05T11:07:52.784Z,22.48
2023-05-05T11:10:21.015Z,22.76
2023-05-05T11:12:51.710Z,23.17
2023-05-05T11:15:30.894Z,23.63
2023-05-05T11:18:06.798Z,23.86
2023-05-05T11:20:42.865Z,24.06
2023-05-05T11:23:10.303Z,24.10
2023-05-05T11:25:40.039Z,22.85
2023-05-05T11:28:18.762Z,22.66
2023-05-05T11:30:58.400Z,22.53
2023-05-05T11:33:35.673Z,22.02
2023-05-05T11:36:07.454Z,21.73
2023-05-05T11:39:09.805Z,21.42
2023-05-05T11:41:41.296Z,21.09
2023-05-05T11:44:14.677Z,20.94
2023-05-05T11:46:50.925Z,20.64
2023-05-05T11:49:29.867Z,20.62
2023-05-05T11:51:59.403Z,20.59
2023-05-05T11:54:27.929Z,20.59
2023-05-05T11:57:05.118Z,20.40
2023-05-05T11:59:49.604Z,20.18
2023-05-05T12:02:19.543Z,20.06
2023-05-05T12:04:48.545Z,20.13
2023-05-05T12:07:28.644Z,20.17
2023-05-05T12:09:56.509Z,19.94
2023-05-05T12:12:40.981Z,19.88
2023-05-05T12:15:09.545Z,19.99
2023-05-05T12:17:45.489Z,19.96
2023-05-05T12:20:13.328Z,19.99
2023-05-05T12:22:41.384Z,19.95
2023-05-05T12:25:09.654Z,19.90
2023-05-05T12:27:38.144Z,20.02
2023-05-05T12:30:18.135Z,20.09
2023-05-05T12:32:45.764Z,20.05
2023-05-05T12:35:14.332Z,20.10
2023-05-05T12:37:43.100Z,20.24
2023-05-05T12:40:46.208Z,20.13
2023-05-05T12:43:34.850Z,19.95
2023-05-05T12:46:11.761Z,19.88
2023-05-05T12:48:43.995Z,19.78
2023-05-05T12:51:26.692Z,19.83
2023-05-05T12:54:07.824Z,19.78
2023-05-05T12:56:45.579Z,19.66
2023-05-05T12:59:22.332Z,19.54
2023-05-05T13:01:57.795Z,19.43
2023-05-05T13:04:27.518Z,19.48
2023-05-05T13:07:13.098Z,19.44
2023-05-05T13:09:40.770Z,19.37
2023-05-05T13:12:11.162Z,19.26
2023-05-05T13:14:40.283Z,19.16
2023-05-05T13:17:08.044Z,19.22
2023-05-05T13:19:41.202Z,19.15
2023-05-05T13:22:12.390Z,19.07
2023-05-05T13:24:50.509Z,19.03
2023-05-05T13:27:20.689Z,19.02
2023-05-05T13:29:48.362Z,19.04
2023-05-05T13:32:15.926Z,18.97
2023-05-05T13:34:43.705Z,18.90
2023-05-05T13:37:11.013Z,18.92
2023-05-05T13:39:38.265Z,18.89
2023-05-05T13:42:05.581Z,18.81
2023-05-05T13:44:32.948Z,18.74
2023-05-05T13:47:00.355Z,18.72
2023-05-05T13:49:27.799Z,18.76
2023-05-05T13:51:55.872Z,18.76
2023-05-05T13:54:23.273Z,18.75
2023-05-05T13:56:50.711Z,18.74
2023-05-05T13:59:18.094Z,18.72
2023-05-05T14:01:45.553Z,18.75
2023-05-05T14:04:13.027Z,18.66
2023-05-05T14:06:40.334Z,18.69
2023-05-05T14:09:07.594Z,18.76
2023-05-05T14:11:34.952Z,18.79
2023-05-05T14:14:02.469Z,18.84
2023-05-05T14:16:30.218Z,18.74
2023-05-05T14:18:57.837Z,18.74
2023-05-05T14:21:25.263Z,18.79
2023-05-05T14:23:52.594Z,18.84
2023-05-05T14:26:19.870Z,18.86
2023-05-05T14:28:49.516Z,18.89
2023-05-05T14:31:17.791Z,18.85
2023-05-05T14:33:46.065Z,18.73
2023-05-05T14:36:14.864Z,18.80
2023-05-05T14:38:42.405Z,18.81
2023-05-05T14:41:10.476Z,18.92
2023-05-05T14:43:37.876Z,18.96
2023-05-05T14:46:06.842Z,19.01
2023-05-05T14:48:35.329Z,19.03
2023-05-05T14:51:03.189Z,19.08
2023-05-05T14:53:31.093Z,19.14
2023-05-05T14:55:58.593Z,19.16
2023-05-05T14:58:25.849Z,19.41
2023-05-05T15:00:54.061Z,19.91
2023-05-05T15:03:21.580Z,20.81
2023-05-05T15:05:49.207Z,21.34
2023-05-05T15:08:18.751Z,22.33
2023-05-05T15:10:46.641Z,23.48
2023-05-05T15:13:14.542Z,24.14
2023-05-05T15:15:42.293Z,24.71
2023-05-05T15:18:09.729Z,25.85
2023-05-05T15:20:37.477Z,26.32
2023-05-05T15:23:05.360Z,26.13
2023-05-05T15:25:32.867Z,25.63
2023-05-05T15:28:00.483Z,24.36
2023-05-05T15:30:28.297Z,24.16
2023-05-05T15:32:56.067Z,23.71
2023-05-05T15:35:25.233Z,23.31
2023-05-05T15:37:55.896Z,23.27
2023-05-05T15:40:23.716Z,22.79
2023-05-05T15:42:51.285Z,22.99
2023-05-05T15:45:18.839Z,23.62
2023-05-05T15:47:47.490Z,24.20
2023-05-05T15:50:15.688Z,25.10
2023-05-05T15:52:43.249Z,25.51
2023-05-05T15:55:11.627Z,26.15
2023-05-05T15:57:40.036Z,26.46
2023-05-05T16:00:09.216Z,26.68
2023-05-05T16:02:38.060Z,26.60
2023-05-05T16:05:06.692Z,26.59
2023-05-05T16:07:34.346Z,26.63
2023-05-05T16:10:02.746Z,26.03
2023-05-05T16:12:30.289Z,26.15
2023-05-05T16:14:58.380Z,26.42
2023-05-05T16:17:26.149Z,25.72
2023-05-05T16:19:53.684Z,25.59
2023-05-05T16:22:21.253Z,25.59
2023-05-05T16:24:48.802Z,25.26
2023-05-05T16:27:16.574Z,25.02
2023-05-05T16:29:44.251Z,24.21
2023-05-05T16:32:12.005Z,24.13
2023-05-05T16:34:39.559Z,24.01
2023-05-05T16:37:07.120Z,24.18
2023-05-05T16:39:39.622Z,23.60
2023-05-05T16:42:07.275Z,23.90
2023-05-05T16:44:34.917Z,23.82
2023-05-05T16:47:02.425Z,23.95
2023-05-05T16:49:29.949Z,23.89
2023-05-05T16:51:57.845Z,23.19
2023-05-05T16:54:25.409Z,22.86
2023-05-05T16:56:53.340Z,22.36
2023-05-05T16:59:20.793Z,21.81
2023-05-05T17:01:48.428Z,21.36
2023-05-05T17:04:16.027Z,20.88
2023-05-05T17:06:43.577Z,20.37
2023-05-05T17:09:11.062Z,20.09
2023-05-05T17:11:38.699Z,19.70
2023-05-05T17:14:06.366Z,19.22
2023-05-05T17:16:34.057Z,18.79
2023-05-05T17:19:01.913Z,18.27
2023-05-05T17:21:29.476Z,17.87
2023-05-05T17:23:57.229Z,17.60
2023-05-05T17:26:24.880Z,17.34
2023-05-05T17:28:52.347Z,17.08
2023-05-05T17:31:19.939Z,16.84
2023-05-05T17:33:47.988Z,16.56
2023-05-05T17:36:15.456Z,16.25
2023-05-05T17:38:42.940Z,15.92
2023-05-05T17:41:10.972Z,15.61
2023-05-05T17:43:38.513Z,15.35
2023-05-05T17:46:06.312Z,15.20
2023-05-05T17:48:34.060Z,15.04
2023-05-05T17:51:02.837Z,14.88
2023-05-05T17:53:30.713Z,14.73
2023-05-05T17:55:58.384Z,14.54
2023-05-05T17:58:26.240Z,14.34
2023-05-05T18:00:53.936Z,14.19
2023-05-05T18:03:21.629Z,14.04
2023-05-05T18:05:49.338Z,13.92
2023-05-05T18:08:18.130Z,13.72
2023-05-05T18:10:45.791Z,13.59
2023-05-05T18:13:13.464Z,13.42
2023-05-05T18:15:41.440Z,13.32
2023-05-05T18:18:09.243Z,13.20
2023-05-05T18:20:36.844Z,13.08
2023-05-05T18:23:06.828Z,13.02
2023-05-05T18:25:34.326Z,12.97
2023-05-05T18:28:01.929Z,12.93
2023-05-05T18:30:29.970Z,12.91
2023-05-05T18:32:57.547Z,12.88
2023-05-05T18:35:25.489Z,12.85
2023-05-05T18:37:54.640Z,12.83
2023-05-05T18:40:22.559Z,12.82
2023-05-05T18:42:50.732Z,12.79
2023-05-05T18:45:18.439Z,12.71
2023-05-05T18:47:46.088Z,12.60
2023-05-05T18:50:13.815Z,12.55
2023-05-05T18:52:41.276Z,12.54
2023-05-05T18:55:09.744Z,12.55
2023-05-05T18:57:37.643Z,12.58
2023-05-05T19:00:09.116Z,12.58
2023-05-05T19:02:36.596Z,12.53
2023-05-05T19:05:05.862Z,12.50
2023-05-05T19:07:35.350Z,12.45
2023-05-05T19:10:07.844Z,12.39
2023-05-05T19:12:35.350Z,12.33
2023-05-05T19:15:03.081Z,12.28
2023-05-05T19:17:30.727Z,12.23
2023-05-05T19:19:58.595Z,12.17
2023-05-05T19:22:26.349Z,12.10
2023-05-05T19:24:53.853Z,12.02
2023-05-05T19:27:21.381Z,11.97
2023-05-05T19:29:51.681Z,11.95
2023-05-05T19:32:21.059Z,11.94
2023-05-05T19:34:48.876Z,11.91
2023-05-05T19:37:16.404Z,11.86
2023-05-05T19:39:45.335Z,11.82
2023-05-05T19:42:13.365Z,11.76
2023-05-05T19:44:40.825Z,11.72
2023-05-05T19:47:09.079Z,11.64
2023-05-05T19:49:38.335Z,11.56
2023-05-05T19:52:05.868Z,11.48
2023-05-05T19:54:33.429Z,11.43
2023-05-05T19:57:01.497Z,11.38
2023-05-05T19:59:29.160Z,11.36
2023-05-05T20:01:56.730Z,11.36
2023-05-05T20:04:24.485Z,11.35
2023-05-05T20:06:52.141Z,11.35
2023-05-05T20:09:19.622Z,11.37
2023-05-05T20:11:47.163Z,11.39
2023-05-05T20:14:14.625Z,11.44
2023-05-05T20:16:42.184Z,11.50
2023-05-05T20:19:09.746Z,11.59
2023-05-05T20:21:37.338Z,11.66
2023-05-05T20:24:06.690Z,11.76
2023-05-05T20:26:34.056Z,11.90
2023-05-05T20:29:01.543Z,12.02
2023-05-05T20:31:29.094Z,12.09
2023-05-05T20:33:56.656Z,12.18
2023-05-05T20:36:26.278Z,12.26
2023-05-05T20:38:53.819Z,12.29
2023-05-05T20:41:21.679Z,12.29
2023-05-05T20:43:49.279Z,12.28
2023-05-05T20:46:16.952Z,12.28
2023-05-05T20:48:44.573Z,12.30
2023-05-05T20:51:12.143Z,12.31
2023-05-05T20:53:40.214Z,12.31
2023-05-05T20:56:08.958Z,12.33
2023-05-05T20:58:36.768Z,12.34
2023-05-05T21:01:04.454Z,12.33
2023-05-05T21:03:32.046Z,12.26
2023-05-05T21:05:59.630Z,12.24
2023-05-05T21:08:28.834Z,12.16
2023-05-05T21:10:56.293Z,12.07
2023-05-05T21:13:24.341Z,11.95
2023-05-05T21:15:51.935Z,11.85
2023-05-05T21:18:19.564Z,11.73
2023-05-05T21:20:47.045Z,11.65
2023-05-05T21:23:14.707Z,11.57
2023-05-05T21:25:42.296Z,11.49
2023-05-05T21:28:10.667Z,11.33
2023-05-05T21:30:38.447Z,11.27
2023-05-05T21:33:06.014Z,11.17
2023-05-05T21:35:33.753Z,11.07
2023-05-05T21:38:01.303Z,11.01
2023-05-05T21:40:28.859Z,10.94
2023-05-05T21:42:56.531Z,10.88
2023-05-05T21:45:24.018Z,10.82
2023-05-05T21:47:51.797Z,10.76
2023-05-05T21:50:19.715Z,10.71
2023-05-05T21:52:47.195Z,10.68
2023-05-05T21:55:15.146Z,10.65
2023-05-05T21:57:43.036Z,10.61
2023-05-05T22:00:16.028Z,10.58
2023-05-05T22:02:45.226Z,10.55
2023-05-05T22:05:12.965Z,10.51
2023-05-05T22:07:40.629Z,10.47
2023-05-05T22:10:09.358Z,10.43
2023-05-05T22:12:37.060Z,10.39
2023-05-05T22:15:06.054Z,10.35
2023-05-05T22:17:33.479Z,10.30
2023-05-05T22:20:00.989Z,10.29
2023-05-05T22:22:28.547Z,10.28
2023-05-05T22:24:56.134Z,10.25
2023-05-05T22:27:24.605Z,10.21
2023-05-05T22:29:52.152Z,10.17
2023-05-05T22:32:20.126Z,10.13
2023-05-05T22:34:47.991Z,10.12
2023-05-05T22:37:15.752Z,10.09
2023-05-05T22:39:43.945Z,10.05
2023-05-05T22:42:11.590Z,10.01
2023-05-05T22:44:39.160Z,9.95
2023-05-05T22:47:06.653Z,9.87
2023-05-05T22:49:34.719Z,9.81
2023-05-05T22:52:03.067Z,9.74
2023-05-05T22:54:30.518Z,9.66
2023-05-05T22:56:58.087Z,9.60
2023-05-05T22:59:25.553Z,9.52
2023-05-05T23:01:53.018Z,9.45
2023-05-05T23:04:20.484Z,9.35
2023-05-05T23:06:48.162Z,9.26
2023-05-05T23:09:15.785Z,9.19
2023-05-05T23:11:43.256Z,9.14
2023-05-05T23:14:10.901Z,9.06
2023-05-05T23:16:38.403Z,9.03
2023-05-05T23:19:05.921Z,8.98
2023-05-05T23:21:38.906Z,8.96
2023-05-05T23:24:13.299Z,8.92
2023-05-05T23:26:40.801Z,8.86
2023-05-05T23:29:08.259Z,8.82
2023-05-05T23:31:35.813Z,8.77
2023-05-05T23:34:03.363Z,8.73
2023-05-05T23:36:30.822Z,8.70
2023-05-05T23:38:58.410Z,8.67
2023-05-05T23:41:25.945Z,8.63
2023-05-05T23:43:53.339Z,8.59
2023-05-05T23:46:20.883Z,8.54
2023-05-05T23:48:49.234Z,8.47
2023-05-05T23:51:17.635Z,8.39
2023-05-05T23:53:45.242Z,8.33
2023-05-05T23:56:12.750Z,8.28
2023-05-05T23:58:40.301Z,8.26
